sensor_id;sensor_type;location;lat;lon;timestamp;pressure;altitude;pressure_sealevel;temperature;humidity
15314;BME280;7757;52.626;4.746;2022-08-21T00:01:17;101496.50;;;24.05;55.12
15314;BME280;7757;52.626;4.746;2022-08-21T00:03:44;101490.38;;;23.71;55.79
15314;BME280;7757;52.626;4.746;2022-08-21T00:06:11;101490.84;;;24.11;54.87
15314;BME280;7757;52.626;4.746;2022-08-21T00:08:38;101482.03;;;24.09;55.37
15314;BME280;7757;52.626;4.746;2022-08-21T00:11:06;101482.00;;;24.04;55.14
15314;BME280;7757;52.626;4.746;2022-08-21T00:13:34;101491.72;;;24.17;54.73
15314;BME280;7757;52.626;4.746;2022-08-21T00:16:02;101483.56;;;24.22;54.73
15314;BME280;7757;52.626;4.746;2022-08-21T00:18:29;101479.44;;;23.93;55.41
15314;BME280;7757;52.626;4.746;2022-08-21T00:20:56;101473.25;;;24.02;55.09
15314;BME280;7757;52.626;4.746;2022-08-21T00:23:22;101476.44;;;24.21;55.38
15314;BME280;7757;52.626;4.746;2022-08-21T00:25:49;101478.75;;;24.39;54.09
15314;BME280;7757;52.626;4.746;2022-08-21T00:28:15;101478.28;;;23.88;55.49
15314;BME280;7757;52.626;4.746;2022-08-21T00:30:44;101473.56;;;24.06;54.82
15314;BME280;7757;52.626;4.746;2022-08-21T00:33:12;101486.28;;;23.95;55.38
15314;BME280;7757;52.626;4.746;2022-08-21T00:35:40;101477.00;;;24.23;54.70
15314;BME280;7757;52.626;4.746;2022-08-21T00:38:07;101479.22;;;24.26;54.99
15314;BME280;7757;52.626;4.746;2022-08-21T00:40:36;101480.81;;;24.22;55.08
15314;BME280;7757;52.626;4.746;2022-08-21T00:43:05;101477.00;;;24.23;55.01
15314;BME280;7757;52.626;4.746;2022-08-21T00:45:32;101474.81;;;24.25;54.88
15314;BME280;7757;52.626;4.746;2022-08-21T00:48:00;101472.31;;;24.18;54.89
15314;BME280;7757;52.626;4.746;2022-08-21T00:50:29;101488.00;;;24.33;54.76
15314;BME280;7757;52.626;4.746;2022-08-21T00:52:58;101481.28;;;24.46;55.01
15314;BME280;7757;52.626;4.746;2022-08-21T00:55:26;101480.13;;;24.36;54.81
15314;BME280;7757;52.626;4.746;2022-08-21T00:57:57;101478.84;;;24.49;54.26
15314;BME280;7757;52.626;4.746;2022-08-21T01:00:28;101469.28;;;24.52;54.44
15314;BME280;7757;52.626;4.746;2022-08-21T01:02:55;101468.38;;;24.09;55.17
15314;BME280;7757;52.626;4.746;2022-08-21T01:05:23;101470.44;;;24.56;54.45
15314;BME280;7757;52.626;4.746;2022-08-21T01:07:50;101473.41;;;24.17;55.02
15314;BME280;7757;52.626;4.746;2022-08-21T01:10:17;101471.59;;;24.33;55.29
15314;BME280;7757;52.626;4.746;2022-08-21T01:12:44;101478.47;;;24.35;54.56
15314;BME280;7757;52.626;4.746;2022-08-21T01:15:12;101480.94;;;23.78;56.03
15314;BME280;7757;52.626;4.746;2022-08-21T01:17:41;101475.03;;;24.18;55.32
15314;BME280;7757;52.626;4.746;2022-08-21T01:20:10;101473.38;;;24.49;54.27
15314;BME280;7757;52.626;4.746;2022-08-21T01:22:38;101467.19;;;24.27;55.01
15314;BME280;7757;52.626;4.746;2022-08-21T01:25:06;101464.97;;;24.56;54.46
15314;BME280;7757;52.626;4.746;2022-08-21T01:27:33;101467.09;;;24.54;54.34
15314;BME280;7757;52.626;4.746;2022-08-21T01:30:04;101464.38;;;24.54;54.20
15314;BME280;7757;52.626;4.746;2022-08-21T01:32:34;101473.47;;;24.59;54.04
15314;BME280;7757;52.626;4.746;2022-08-21T01:35:02;101470.13;;;24.52;54.91
15314;BME280;7757;52.626;4.746;2022-08-21T01:37:29;101465.44;;;24.16;55.18
15314;BME280;7757;52.626;4.746;2022-08-21T01:39:57;101458.50;;;24.35;54.39
15314;BME280;7757;52.626;4.746;2022-08-21T01:42:24;101461.38;;;24.50;54.43
15314;BME280;7757;52.626;4.746;2022-08-21T01:44:51;101468.97;;;24.43;54.53
15314;BME280;7757;52.626;4.746;2022-08-21T01:47:17;101455.47;;;24.31;54.58
15314;BME280;7757;52.626;4.746;2022-08-21T01:49:45;101457.00;;;24.54;54.08
15314;BME280;7757;52.626;4.746;2022-08-21T01:52:11;101463.28;;;24.50;54.00
15314;BME280;7757;52.626;4.746;2022-08-21T01:54:38;101442.25;;;24.55;54.17
15314;BME280;7757;52.626;4.746;2022-08-21T01:57:07;101452.25;;;24.39;54.80
15314;BME280;7757;52.626;4.746;2022-08-21T01:59:34;101446.41;;;24.26;55.20
15314;BME280;7757;52.626;4.746;2022-08-21T02:02:00;101446.00;;;24.44;54.22
15314;BME280;7757;52.626;4.746;2022-08-21T02:04:27;101439.81;;;24.59;54.03
15314;BME280;7757;52.626;4.746;2022-08-21T02:06:53;101441.41;;;24.55;53.80
15314;BME280;7757;52.626;4.746;2022-08-21T02:09:20;101440.28;;;24.51;54.10
15314;BME280;7757;52.626;4.746;2022-08-21T02:11:47;101433.44;;;24.48;54.04
15314;BME280;7757;52.626;4.746;2022-08-21T02:14:15;101431.91;;;24.62;53.91
15314;BME280;7757;52.626;4.746;2022-08-21T02:16:44;101425.06;;;24.65;53.53
15314;BME280;7757;52.626;4.746;2022-08-21T02:19:11;101433.50;;;24.53;54.42
15314;BME280;7757;52.626;4.746;2022-08-21T02:21:38;101428.03;;;24.58;54.27
15314;BME280;7757;52.626;4.746;2022-08-21T02:24:06;101428.88;;;24.59;53.45
15314;BME280;7757;52.626;4.746;2022-08-21T02:26:33;101432.22;;;24.29;54.47
15314;BME280;7757;52.626;4.746;2022-08-21T02:29:00;101430.97;;;24.47;54.15
15314;BME280;7757;52.626;4.746;2022-08-21T02:31:28;101427.19;;;24.16;54.96
15314;BME280;7757;52.626;4.746;2022-08-21T02:33:54;101428.69;;;24.33;54.39
15314;BME280;7757;52.626;4.746;2022-08-21T02:36:21;101423.72;;;24.25;54.67
15314;BME280;7757;52.626;4.746;2022-08-21T02:38:48;101425.22;;;24.48;54.10
15314;BME280;7757;52.626;4.746;2022-08-21T02:41:16;101426.59;;;24.46;54.62
15314;BME280;7757;52.626;4.746;2022-08-21T02:43:43;101417.50;;;24.35;54.30
15314;BME280;7757;52.626;4.746;2022-08-21T02:46:12;101423.81;;;24.40;54.27
15314;BME280;7757;52.626;4.746;2022-08-21T02:48:41;101433.06;;;24.34;54.24
15314;BME280;7757;52.626;4.746;2022-08-21T02:51:09;101427.00;;;24.27;54.66
15314;BME280;7757;52.626;4.746;2022-08-21T02:53:36;101424.13;;;24.12;55.05
15314;BME280;7757;52.626;4.746;2022-08-21T02:56:05;101424.28;;;24.01;55.26
15314;BME280;7757;52.626;4.746;2022-08-21T02:58:34;101415.19;;;24.17;54.84
15314;BME280;7757;52.626;4.746;2022-08-21T03:01:02;101408.34;;;24.19;54.90
15314;BME280;7757;52.626;4.746;2022-08-21T03:03:29;101408.44;;;24.29;54.50
15314;BME280;7757;52.626;4.746;2022-08-21T03:05:57;101406.47;;;24.25;55.03
15314;BME280;7757;52.626;4.746;2022-08-21T03:08:23;101407.75;;;23.85;55.48
15314;BME280;7757;52.626;4.746;2022-08-21T03:10:51;101406.38;;;23.83;56.41
15314;BME280;7757;52.626;4.746;2022-08-21T03:13:19;101402.75;;;23.72;56.30
15314;BME280;7757;52.626;4.746;2022-08-21T03:15:47;101399.84;;;23.57;56.47
15314;BME280;7757;52.626;4.746;2022-08-21T03:18:14;101392.97;;;23.50;57.15
15314;BME280;7757;52.626;4.746;2022-08-21T03:20:42;101396.66;;;23.65;56.43
15314;BME280;7757;52.626;4.746;2022-08-21T03:23:12;101394.72;;;23.61;57.15
15314;BME280;7757;52.626;4.746;2022-08-21T03:25:39;101392.28;;;23.64;56.47
15314;BME280;7757;52.626;4.746;2022-08-21T03:28:08;101395.00;;;23.38;56.88
15314;BME280;7757;52.626;4.746;2022-08-21T03:30:35;101388.69;;;23.37;57.75
15314;BME280;7757;52.626;4.746;2022-08-21T03:33:02;101389.28;;;23.66;56.05
15314;BME280;7757;52.626;4.746;2022-08-21T03:35:29;101389.97;;;23.51;57.22
15314;BME280;7757;52.626;4.746;2022-08-21T03:37:56;101390.78;;;23.52;56.50
15314;BME280;7757;52.626;4.746;2022-08-21T03:40:24;101381.78;;;23.29;57.79
15314;BME280;7757;52.626;4.746;2022-08-21T03:42:50;101385.09;;;23.31;56.98
15314;BME280;7757;52.626;4.746;2022-08-21T03:45:18;101380.38;;;23.27;57.23
15314;BME280;7757;52.626;4.746;2022-08-21T03:47:55;101376.47;;;23.40;56.91
15314;BME280;7757;52.626;4.746;2022-08-21T03:50:23;101376.03;;;23.26;57.53
15314;BME280;7757;52.626;4.746;2022-08-21T03:52:50;101379.22;;;22.96;57.94
15314;BME280;7757;52.626;4.746;2022-08-21T03:55:16;101377.56;;;23.17;58.03
15314;BME280;7757;52.626;4.746;2022-08-21T03:57:45;101377.53;;;23.39;56.44
15314;BME280;7757;52.626;4.746;2022-08-21T04:00:14;101372.66;;;23.19;57.57
15314;BME280;7757;52.626;4.746;2022-08-21T04:02:41;101376.97;;;23.15;57.71
15314;BME280;7757;52.626;4.746;2022-08-21T04:05:09;101375.34;;;23.14;57.83
15314;BME280;7757;52.626;4.746;2022-08-21T04:07:35;101381.69;;;23.19;57.49
15314;BME280;7757;52.626;4.746;2022-08-21T04:10:03;101381.22;;;23.27;57.54
15314;BME280;7757;52.626;4.746;2022-08-21T04:12:30;101379.69;;;23.37;57.33
15314;BME280;7757;52.626;4.746;2022-08-21T04:14:58;101383.38;;;23.25;57.35
15314;BME280;7757;52.626;4.746;2022-08-21T04:17:27;101388.53;;;23.22;57.76
15314;BME280;7757;52.626;4.746;2022-08-21T04:19:53;101383.66;;;23.02;57.63
15314;BME280;7757;52.626;4.746;2022-08-21T04:22:20;101381.53;;;23.31;57.27
15314;BME280;7757;52.626;4.746;2022-08-21T04:24:47;101382.06;;;23.06;57.69
15314;BME280;7757;52.626;4.746;2022-08-21T04:27:15;101376.94;;;22.88;58.69
15314;BME280;7757;52.626;4.746;2022-08-21T04:29:41;101390.63;;;23.15;58.00
15314;BME280;7757;52.626;4.746;2022-08-21T04:32:09;101384.69;;;22.96;57.80
15314;BME280;7757;52.626;4.746;2022-08-21T04:34:35;101394.19;;;22.72;59.12
15314;BME280;7757;52.626;4.746;2022-08-21T04:37:02;101400.19;;;22.91;58.75
15314;BME280;7757;52.626;4.746;2022-08-21T04:39:29;101396.09;;;23.15;57.81
15314;BME280;7757;52.626;4.746;2022-08-21T04:41:56;101400.66;;;23.09;58.31
15314;BME280;7757;52.626;4.746;2022-08-21T04:44:22;101404.59;;;23.18;57.93
15314;BME280;7757;52.626;4.746;2022-08-21T04:46:49;101403.75;;;23.18;57.66
15314;BME280;7757;52.626;4.746;2022-08-21T04:49:16;101396.84;;;22.89;57.61
15314;BME280;7757;52.626;4.746;2022-08-21T04:51:44;101401.81;;;23.13;57.92
15314;BME280;7757;52.626;4.746;2022-08-21T04:54:14;101396.41;;;23.18;57.41
15314;BME280;7757;52.626;4.746;2022-08-21T04:56:45;101401.31;;;23.16;57.85
15314;BME280;7757;52.626;4.746;2022-08-21T04:59:15;101398.44;;;23.06;57.80
15314;BME280;7757;52.626;4.746;2022-08-21T05:01:46;101400.97;;;23.13;57.62
15314;BME280;7757;52.626;4.746;2022-08-21T05:04:17;101400.75;;;23.14;58.00
15314;BME280;7757;52.626;4.746;2022-08-21T05:06:46;101414.81;;;23.06;57.30
15314;BME280;7757;52.626;4.746;2022-08-21T05:09:16;101399.13;;;23.18;57.10
15314;BME280;7757;52.626;4.746;2022-08-21T05:11:43;101410.50;;;23.32;57.19
15314;BME280;7757;52.626;4.746;2022-08-21T05:14:11;101409.53;;;23.21;56.93
15314;BME280;7757;52.626;4.746;2022-08-21T05:16:38;101410.88;;;23.41;56.72
15314;BME280;7757;52.626;4.746;2022-08-21T05:19:06;101413.16;;;23.27;57.76
15314;BME280;7757;52.626;4.746;2022-08-21T05:21:35;101414.94;;;23.16;57.60
15314;BME280;7757;52.626;4.746;2022-08-21T05:24:02;101417.66;;;23.38;56.96
15314;BME280;7757;52.626;4.746;2022-08-21T05:26:29;101421.13;;;23.33;57.52
15314;BME280;7757;52.626;4.746;2022-08-21T05:28:56;101420.59;;;23.31;57.63
15314;BME280;7757;52.626;4.746;2022-08-21T05:31:22;101415.13;;;23.31;57.56
15314;BME280;7757;52.626;4.746;2022-08-21T05:33:49;101399.38;;;23.39;57.42
15314;BME280;7757;52.626;4.746;2022-08-21T05:36:16;101414.94;;;23.38;57.30
15314;BME280;7757;52.626;4.746;2022-08-21T05:38:45;101424.94;;;23.32;57.44
15314;BME280;7757;52.626;4.746;2022-08-21T05:41:11;101420.41;;;23.16;57.95
15314;BME280;7757;52.626;4.746;2022-08-21T05:43:38;101416.97;;;23.04;57.87
15314;BME280;7757;52.626;4.746;2022-08-21T05:46:05;101413.22;;;23.32;57.63
15314;BME280;7757;52.626;4.746;2022-08-21T05:48:34;101420.97;;;23.40;57.82
15314;BME280;7757;52.626;4.746;2022-08-21T05:51:05;101415.56;;;23.72;56.52
15314;BME280;7757;52.626;4.746;2022-08-21T05:53:32;101415.16;;;23.58;57.08
15314;BME280;7757;52.626;4.746;2022-08-21T05:56:00;101419.16;;;23.77;56.39
15314;BME280;7757;52.626;4.746;2022-08-21T05:58:30;101418.66;;;23.54;57.60
15314;BME280;7757;52.626;4.746;2022-08-21T06:00:58;101420.41;;;23.65;56.82
15314;BME280;7757;52.626;4.746;2022-08-21T06:03:28;101416.91;;;24.01;56.26
15314;BME280;7757;52.626;4.746;2022-08-21T06:05:55;101427.50;;;23.93;56.15
15314;BME280;7757;52.626;4.746;2022-08-21T06:08:23;101417.16;;;24.26;55.24
15314;BME280;7757;52.626;4.746;2022-08-21T06:10:52;101416.16;;;24.42;54.95
15314;BME280;7757;52.626;4.746;2022-08-21T06:13:21;101413.41;;;24.37;55.68
15314;BME280;7757;52.626;4.746;2022-08-21T06:15:48;101415.66;;;24.46;55.09
15314;BME280;7757;52.626;4.746;2022-08-21T06:18:16;101413.75;;;24.46;54.88
15314;BME280;7757;52.626;4.746;2022-08-21T06:20:43;101411.41;;;24.65;54.28
15314;BME280;7757;52.626;4.746;2022-08-21T06:23:09;101412.06;;;24.87;54.46
15314;BME280;7757;52.626;4.746;2022-08-21T06:25:36;101414.66;;;25.19;53.04
15314;BME280;7757;52.626;4.746;2022-08-21T06:28:04;101415.28;;;25.36;52.73
15314;BME280;7757;52.626;4.746;2022-08-21T06:30:34;101416.13;;;25.41;52.54
15314;BME280;7757;52.626;4.746;2022-08-21T06:33:01;101412.91;;;25.65;52.20
15314;BME280;7757;52.626;4.746;2022-08-21T06:35:29;101414.56;;;25.81;51.37
15314;BME280;7757;52.626;4.746;2022-08-21T06:37:55;101414.53;;;25.61;51.98
15314;BME280;7757;52.626;4.746;2022-08-21T06:40:22;101414.81;;;25.69;51.55
15314;BME280;7757;52.626;4.746;2022-08-21T06:42:49;101420.66;;;25.01;53.97
15314;BME280;7757;52.626;4.746;2022-08-21T06:45:15;101422.09;;;25.18;54.23
15314;BME280;7757;52.626;4.746;2022-08-21T06:47:43;101415.66;;;24.87;54.25
15314;BME280;7757;52.626;4.746;2022-08-21T06:50:10;101416.56;;;24.61;55.74
15314;BME280;7757;52.626;4.746;2022-08-21T06:52:37;101420.59;;;24.95;55.06
15314;BME280;7757;52.626;4.746;2022-08-21T06:55:07;101409.56;;;24.80;55.46
15314;BME280;7757;52.626;4.746;2022-08-21T06:57:34;101412.47;;;24.64;55.29
15314;BME280;7757;52.626;4.746;2022-08-21T07:00:00;101416.28;;;24.63;56.26
15314;BME280;7757;52.626;4.746;2022-08-21T07:02:27;101411.72;;;24.73;57.09
15314;BME280;7757;52.626;4.746;2022-08-21T07:04:55;101419.66;;;25.27;54.56
15314;BME280;7757;52.626;4.746;2022-08-21T07:07:21;101419.66;;;25.27;54.25
15314;BME280;7757;52.626;4.746;2022-08-21T07:09:48;101419.91;;;25.25;54.58
15314;BME280;7757;52.626;4.746;2022-08-21T07:12:15;101416.88;;;25.22;54.83
15314;BME280;7757;52.626;4.746;2022-08-21T07:14:41;101415.78;;;25.23;54.10
15314;BME280;7757;52.626;4.746;2022-08-21T07:17:08;101428.06;;;25.10;54.30
15314;BME280;7757;52.626;4.746;2022-08-21T07:19:35;101419.63;;;24.70;55.62
15314;BME280;7757;52.626;4.746;2022-08-21T07:22:03;101419.19;;;24.41;57.05
15314;BME280;7757;52.626;4.746;2022-08-21T07:24:30;101431.25;;;24.92;56.81
15314;BME280;7757;52.626;4.746;2022-08-21T07:26:56;101422.38;;;24.70;55.87
15314;BME280;7757;52.626;4.746;2022-08-21T07:29:23;101429.31;;;24.46;57.28
15314;BME280;7757;52.626;4.746;2022-08-21T07:31:49;101429.19;;;24.67;56.49
15314;BME280;7757;52.626;4.746;2022-08-21T07:34:16;101431.84;;;24.57;57.16
15314;BME280;7757;52.626;4.746;2022-08-21T07:36:43;101436.34;;;24.73;55.98
15314;BME280;7757;52.626;4.746;2022-08-21T07:39:11;101433.00;;;24.66;56.02
15314;BME280;7757;52.626;4.746;2022-08-21T07:41:37;101439.97;;;28.34;47.50
15314;BME280;7757;52.626;4.746;2022-08-21T07:44:04;101441.88;;;30.86;41.43
15314;BME280;7757;52.626;4.746;2022-08-21T07:46:30;101440.03;;;31.09;40.92
15314;BME280;7757;52.626;4.746;2022-08-21T07:48:57;101447.16;;;31.65;39.24
15314;BME280;7757;52.626;4.746;2022-08-21T07:51:26;101439.50;;;31.48;39.55
15314;BME280;7757;52.626;4.746;2022-08-21T07:53:56;101429.41;;;31.66;39.49
15314;BME280;7757;52.626;4.746;2022-08-21T07:56:24;101433.13;;;31.47;39.89
15314;BME280;7757;52.626;4.746;2022-08-21T07:58:51;101429.44;;;31.03;40.75
15314;BME280;7757;52.626;4.746;2022-08-21T08:01:17;101425.06;;;28.69;44.75
15314;BME280;7757;52.626;4.746;2022-08-21T08:03:44;101418.25;;;28.85;44.81
15314;BME280;7757;52.626;4.746;2022-08-21T08:06:11;101424.25;;;27.18;48.21
15314;BME280;7757;52.626;4.746;2022-08-21T08:08:39;101419.44;;;26.70;50.00
15314;BME280;7757;52.626;4.746;2022-08-21T08:11:06;101419.19;;;26.61;49.93
15314;BME280;7757;52.626;4.746;2022-08-21T08:13:40;101419.19;;;26.71;50.29
15314;BME280;7757;52.626;4.746;2022-08-21T08:16:07;101413.75;;;26.11;51.43
15314;BME280;7757;52.626;4.746;2022-08-21T08:18:33;101415.41;;;26.27;51.21
15314;BME280;7757;52.626;4.746;2022-08-21T08:21:00;101424.16;;;25.78;52.02
15314;BME280;7757;52.626;4.746;2022-08-21T08:23:27;101425.56;;;26.21;50.99
15314;BME280;7757;52.626;4.746;2022-08-21T08:25:55;101419.44;;;26.80;49.49
15314;BME280;7757;52.626;4.746;2022-08-21T08:28:22;101421.63;;;26.73;49.36
15314;BME280;7757;52.626;4.746;2022-08-21T08:30:50;101426.28;;;26.92;49.06
15314;BME280;7757;52.626;4.746;2022-08-21T08:33:17;101416.97;;;26.83;49.39
15314;BME280;7757;52.626;4.746;2022-08-21T08:35:46;101420.72;;;27.02;48.70
15314;BME280;7757;52.626;4.746;2022-08-21T08:38:15;101424.66;;;26.71;49.47
15314;BME280;7757;52.626;4.746;2022-08-21T08:40:48;101414.50;;;26.77;49.42
15314;BME280;7757;52.626;4.746;2022-08-21T08:43:17;101413.69;;;26.71;49.35
15314;BME280;7757;52.626;4.746;2022-08-21T08:45:46;101412.53;;;26.97;48.67
15314;BME280;7757;52.626;4.746;2022-08-21T08:48:26;101411.00;;;27.25;47.95
15314;BME280;7757;52.626;4.746;2022-08-21T08:51:00;101414.47;;;26.92;48.69
15314;BME280;7757;52.626;4.746;2022-08-21T08:53:30;101418.84;;;26.93;48.75
15314;BME280;7757;52.626;4.746;2022-08-21T08:56:00;101419.09;;;26.96;48.74
15314;BME280;7757;52.626;4.746;2022-08-21T08:58:30;101422.72;;;26.82;49.01
15314;BME280;7757;52.626;4.746;2022-08-21T09:00:57;101423.56;;;27.41;47.76
15314;BME280;7757;52.626;4.746;2022-08-21T09:03:26;101425.13;;;27.03;48.44
15314;BME280;7757;52.626;4.746;2022-08-21T09:05:57;101408.97;;;26.87;48.72
15314;BME280;7757;52.626;4.746;2022-08-21T09:08:44;101418.31;;;26.76;49.03
15314;BME280;7757;52.626;4.746;2022-08-21T09:11:21;101425.16;;;26.93;48.94
15314;BME280;7757;52.626;4.746;2022-08-21T09:13:57;101427.69;;;26.80;48.91
15314;BME280;7757;52.626;4.746;2022-08-21T09:16:35;101426.63;;;26.45;49.60
15314;BME280;7757;52.626;4.746;2022-08-21T09:19:22;101425.28;;;26.33;50.28
15314;BME280;7757;52.626;4.746;2022-08-21T09:21:54;101427.97;;;26.58;49.48
15314;BME280;7757;52.626;4.746;2022-08-21T09:24:32;101432.09;;;26.66;49.16
15314;BME280;7757;52.626;4.746;2022-08-21T09:27:04;101432.63;;;26.78;48.97
15314;BME280;7757;52.626;4.746;2022-08-21T09:29:35;101433.91;;;27.05;48.44
15314;BME280;7757;52.626;4.746;2022-08-21T09:32:04;101441.88;;;27.02;48.38
15314;BME280;7757;52.626;4.746;2022-08-21T09:34:36;101438.63;;;26.95;48.41
15314;BME280;7757;52.626;4.746;2022-08-21T09:37:02;101439.16;;;26.97;47.90
15314;BME280;7757;52.626;4.746;2022-08-21T09:39:31;101434.00;;;26.80;48.33
15314;BME280;7757;52.626;4.746;2022-08-21T09:42:00;101438.41;;;26.56;49.01
15314;BME280;7757;52.626;4.746;2022-08-21T09:44:28;101426.28;;;26.87;48.31
15314;BME280;7757;52.626;4.746;2022-08-21T09:46:55;101433.13;;;26.90;48.23
15314;BME280;7757;52.626;4.746;2022-08-21T09:49:28;101436.59;;;27.21;47.74
15314;BME280;7757;52.626;4.746;2022-08-21T09:51:58;101440.25;;;26.96;48.08
15314;BME280;7757;52.626;4.746;2022-08-21T09:54:29;101436.94;;;26.99;48.44
15314;BME280;7757;52.626;4.746;2022-08-21T09:56:58;101443.84;;;26.76;48.86
15314;BME280;7757;52.626;4.746;2022-08-21T09:59:44;101448.88;;;26.44;49.71
15314;BME280;7757;52.626;4.746;2022-08-21T10:02:23;101441.72;;;26.02;51.02
15314;BME280;7757;52.626;4.746;2022-08-21T10:04:52;101458.75;;;26.15;50.52
15314;BME280;7757;52.626;4.746;2022-08-21T10:07:23;101455.72;;;26.41;50.11
15314;BME280;7757;52.626;4.746;2022-08-21T10:09:59;101447.75;;;26.40;50.04
15314;BME280;7757;52.626;4.746;2022-08-21T10:12:31;101450.22;;;26.61;49.50
15314;BME280;7757;52.626;4.746;2022-08-21T10:15:07;101455.19;;;26.29;50.27
15314;BME280;7757;52.626;4.746;2022-08-21T10:17:43;101458.72;;;26.65;49.53
15314;BME280;7757;52.626;4.746;2022-08-21T10:20:14;101461.50;;;26.20;50.53
15314;BME280;7757;52.626;4.746;2022-08-21T10:22:51;101449.91;;;25.72;51.61
15314;BME280;7757;52.626;4.746;2022-08-21T10:25:31;101451.84;;;25.77;51.61
15314;BME280;7757;52.626;4.746;2022-08-21T10:28:06;101459.81;;;26.49;49.77
15314;BME280;7757;52.626;4.746;2022-08-21T10:30:40;101453.28;;;26.30;50.01
15314;BME280;7757;52.626;4.746;2022-08-21T10:33:30;101456.56;;;26.22;50.33
15314;BME280;7757;52.626;4.746;2022-08-21T10:36:05;101454.88;;;26.05;50.57
15314;BME280;7757;52.626;4.746;2022-08-21T10:38:59;101461.69;;;25.73;51.54
15314;BME280;7757;52.626;4.746;2022-08-21T10:41:42;101453.78;;;26.01;50.95
15314;BME280;7757;52.626;4.746;2022-08-21T10:44:20;101447.78;;;26.15;50.29
15314;BME280;7757;52.626;4.746;2022-08-21T10:46:53;101448.84;;;25.93;50.88
15314;BME280;7757;52.626;4.746;2022-08-21T10:49:29;101440.34;;;26.55;49.41
15314;BME280;7757;52.626;4.746;2022-08-21T10:52:23;101448.31;;;26.12;50.62
15314;BME280;7757;52.626;4.746;2022-08-21T10:55:00;101460.66;;;26.09;50.96
15314;BME280;7757;52.626;4.746;2022-08-21T10:57:34;101450.44;;;25.69;51.74
15314;BME280;7757;52.626;4.746;2022-08-21T11:00:07;101458.72;;;26.55;49.86
15314;BME280;7757;52.626;4.746;2022-08-21T11:02:39;101454.06;;;26.45;49.85
15314;BME280;7757;52.626;4.746;2022-08-21T11:05:11;101460.31;;;25.70;52.29
15314;BME280;7757;52.626;4.746;2022-08-21T11:07:45;101454.47;;;25.41;52.79
15314;BME280;7757;52.626;4.746;2022-08-21T11:10:17;101462.53;;;25.73;52.04
15314;BME280;7757;52.626;4.746;2022-08-21T11:12:48;101466.09;;;25.74;52.27
15314;BME280;7757;52.626;4.746;2022-08-21T11:15:26;101451.91;;;26.42;50.25
15314;BME280;7757;52.626;4.746;2022-08-21T11:18:00;101456.56;;;26.27;50.56
15314;BME280;7757;52.626;4.746;2022-08-21T11:20:33;101450.78;;;26.03;51.01
15314;BME280;7757;52.626;4.746;2022-08-21T11:23:03;101455.44;;;26.38;49.93
15314;BME280;7757;52.626;4.746;2022-08-21T11:25:37;101451.63;;;26.19;50.34
15314;BME280;7757;52.626;4.746;2022-08-21T11:28:11;101465.31;;;26.03;51.05
15314;BME280;7757;52.626;4.746;2022-08-21T11:30:46;101462.03;;;26.32;50.01
15314;BME280;7757;52.626;4.746;2022-08-21T11:33:28;101466.13;;;26.09;50.82
15314;BME280;7757;52.626;4.746;2022-08-21T11:36:02;101459.53;;;26.45;50.04
15314;BME280;7757;52.626;4.746;2022-08-21T11:38:35;101466.44;;;26.33;49.40
15314;BME280;7757;52.626;4.746;2022-08-21T11:41:16;101462.03;;;26.06;50.39
15314;BME280;7757;52.626;4.746;2022-08-21T11:43:47;101463.09;;;26.11;50.68
15314;BME280;7757;52.626;4.746;2022-08-21T11:46:25;101468.03;;;26.08;50.77
15314;BME280;7757;52.626;4.746;2022-08-21T11:49:06;101472.41;;;25.74;51.23
15314;BME280;7757;52.626;4.746;2022-08-21T11:51:51;101465.84;;;26.00;50.46
15314;BME280;7757;52.626;4.746;2022-08-21T11:54:24;101465.56;;;25.92;51.09
15314;BME280;7757;52.626;4.746;2022-08-21T11:56:59;101467.75;;;25.90;50.95
15314;BME280;7757;52.626;4.746;2022-08-21T11:59:35;101462.84;;;25.92;50.55
15314;BME280;7757;52.626;4.746;2022-08-21T12:02:09;101468.81;;;25.84;50.91
15314;BME280;7757;52.626;4.746;2022-08-21T12:04:44;101463.63;;;25.82;50.19
15314;BME280;7757;52.626;4.746;2022-08-21T12:07:13;101472.72;;;25.98;50.46
15314;BME280;7757;52.626;4.746;2022-08-21T12:09:52;101471.63;;;26.29;49.68
15314;BME280;7757;52.626;4.746;2022-08-21T12:12:26;101472.97;;;26.01;50.10
15314;BME280;7757;52.626;4.746;2022-08-21T12:15:11;101480.06;;;25.87;50.56
15314;BME280;7757;52.626;4.746;2022-08-21T12:17:39;101474.59;;;25.87;50.46
15314;BME280;7757;52.626;4.746;2022-08-21T12:20:17;101487.47;;;25.77;50.30
15314;BME280;7757;52.626;4.746;2022-08-21T12:22:51;101486.38;;;25.83;50.07
15314;BME280;7757;52.626;4.746;2022-08-21T12:25:20;101484.75;;;25.97;49.54
15314;BME280;7757;52.626;4.746;2022-08-21T12:27:51;101473.78;;;25.82;49.65
15314;BME280;7757;52.626;4.746;2022-08-21T12:30:22;101496.53;;;25.87;49.94
15314;BME280;7757;52.626;4.746;2022-08-21T12:32:56;101484.47;;;25.83;49.99
15314;BME280;7757;52.626;4.746;2022-08-21T12:35:24;101487.78;;;26.00;49.07
15314;BME280;7757;52.626;4.746;2022-08-21T12:37:56;101490.25;;;25.92;49.50
15314;BME280;7757;52.626;4.746;2022-08-21T12:40:28;101486.09;;;25.84;49.73
15314;BME280;7757;52.626;4.746;2022-08-21T12:42:59;101495.97;;;25.85;49.62
15314;BME280;7757;52.626;4.746;2022-08-21T12:45:30;101491.31;;;25.96;48.79
15314;BME280;7757;52.626;4.746;2022-08-21T12:47:59;101489.97;;;26.03;48.69
15314;BME280;7757;52.626;4.746;2022-08-21T12:50:32;101477.91;;;26.04;48.85
15314;BME280;7757;52.626;4.746;2022-08-21T12:53:05;101486.41;;;26.13;49.29
15314;BME280;7757;52.626;4.746;2022-08-21T12:55:34;101486.19;;;26.30;48.00
15314;BME280;7757;52.626;4.746;2022-08-21T12:58:05;101487.78;;;26.05;49.06
15314;BME280;7757;52.626;4.746;2022-08-21T13:00:32;101489.16;;;25.98;49.25
15314;BME280;7757;52.626;4.746;2022-08-21T13:02:59;101494.34;;;25.94;48.25
15314;BME280;7757;52.626;4.746;2022-08-21T13:05:34;101493.25;;;26.11;48.34
15314;BME280;7757;52.626;4.746;2022-08-21T13:08:04;101499.53;;;25.81;48.77
15314;BME280;7757;52.626;4.746;2022-08-21T13:10:33;101495.75;;;26.22;48.60
15314;BME280;7757;52.626;4.746;2022-08-21T13:13:04;101489.47;;;26.47;46.54